Time;durP1;ratioP1;P1;durP2;ratioP2;P2;SDS_P1;SDS_P2;PMS_P1;PMS_P2;Temp;Humidity;BMP_temperature;BMP_pressure;BME280_temperature;BME280_humidity;BME280_pressure;Samples;Min_cycle;Max_cycle;Signal;HPM_P1;HPM_P2
2023/04/05 00:00:39;;;;;;;;;;;1.90;1.00;;;;;;5081000;28;20007;-71
2023/04/05 00:03:05;;;;;;;;;;;1.80;1.00;;;;;;5080122;28;19916;-71
2023/04/05 00:05:33;;;;;;;;;;;1.80;1.00;;;;;;5086787;28;19912;-72
2023/04/05 00:08:00;;;;;;;;;;;1.70;1.00;;;;;;5082622;28;19909;-72
2023/04/05 00:10:43;;;;;;;;;;;1.70;1.00;;;;;;5083201;28;19912;-80
2023/04/05 00:13:13;;;;;;;;;;;1.70;1.00;;;;;;5077213;28;19999;-81
2023/04/05 00:15:39;;;;;;;;;;;1.70;1.00;;;;;;5076002;28;19915;-81
2023/04/05 00:18:20;;;;;;;;;;;1.70;1.00;;;;;;5085645;28;20020;-81
2023/04/05 00:20:55;;;;;;;;;;;1.70;1.00;;;;;;5079561;28;19962;-81
2023/04/05 00:23:43;;;;;;;;;;;1.70;1.00;;;;;;5087783;28;19915;-81
2023/04/05 00:26:12;;;;;;;;;;;1.70;1.00;;;;;;5097071;28;19910;-71
2023/04/05 00:28:37;;;;;;;;;;;1.60;1.00;;;;;;5085330;28;19939;-71
2023/04/05 00:31:04;;;;;;;;;;;1.60;1.00;;;;;;5076605;28;19951;-72
2023/04/05 00:33:29;;;;;;;;;;;1.60;1.00;;;;;;5086429;28;19999;-72
2023/04/05 00:35:55;;;;;;;;;;;1.60;1.00;;;;;;5073814;28;20334;-71
2023/04/05 00:38:20;;;;;;;;;;;1.60;1.00;;;;;;5084544;28;19912;-72
2023/04/05 00:40:46;;;;;;;;;;;1.60;1.00;;;;;;5078886;28;19908;-72
2023/04/05 00:43:12;;;;;;;;;;;1.60;1.00;;;;;;5057657;28;19957;-72
2023/04/05 00:45:37;;;;;;;;;;;1.60;1.00;;;;;;5076106;28;19908;-72
2023/04/05 00:48:07;;;;;;;;;;;1.60;1.00;;;;;;5088868;28;20011;-72
2023/04/05 00:50:33;;;;;;;;;;;1.60;1.00;;;;;;5058067;28;20355;-72
2023/04/05 00:52:59;;;;;;;;;;;1.60;1.00;;;;;;5075115;28;19915;-72
2023/04/05 00:55:25;;;;;;;;;;;1.50;1.00;;;;;;5075858;28;19908;-81
2023/04/05 00:57:54;;;;;;;;;;;1.50;1.00;;;;;;5079125;28;19908;-80
2023/04/05 01:00:38;;;;;;;;;;;1.50;1.00;;;;;;5075984;28;19904;-81
2023/04/05 01:03:13;;;;;;;;;;;1.40;1.00;;;;;;5077516;28;19954;-81
2023/04/05 01:05:45;;;;;;;;;;;1.40;1.00;;;;;;5076098;28;19915;-81
2023/04/05 01:11:15;;;;;;;;;;;1.30;1.00;;;;;;5090437;28;19914;-71
2023/04/05 01:13:43;;;;;;;;;;;1.20;1.00;;;;;;5075632;28;19939;-71
2023/04/05 01:16:10;;;;;;;;;;;1.10;1.00;;;;;;5088784;28;19914;-71
2023/04/05 01:18:36;;;;;;;;;;;1.10;1.00;;;;;;5075735;28;19909;-71
2023/04/05 01:21:19;;;;;;;;;;;1.00;1.00;;;;;;5081979;28;19918;-71
2023/04/05 01:24:08;;;;;;;;;;;1.00;1.00;;;;;;5076161;28;19958;-71
2023/04/05 01:27:01;;;;;;;;;;;0.90;1.00;;;;;;5075547;28;20363;-81
2023/04/05 01:29:46;;;;;;;;;;;0.90;1.00;;;;;;5092049;28;20278;-81
2023/04/05 01:32:31;;;;;;;;;;;0.80;1.00;;;;;;5070667;28;19915;-81
2023/04/05 01:35:25;;;;;;;;;;;0.70;1.00;;;;;;5095613;28;20010;-81
2023/04/05 01:37:59;;;;;;;;;;;0.70;1.00;;;;;;5095180;28;19907;-81
2023/04/05 01:40:25;;;;;;;;;;;0.70;1.00;;;;;;5094978;28;19923;-72
2023/04/05 01:42:51;;;;;;;;;;;0.60;1.00;;;;;;5075077;28;20393;-71
2023/04/05 01:45:17;;;;;;;;;;;0.60;1.00;;;;;;5074467;28;19908;-71
2023/04/05 01:47:42;;;;;;;;;;;0.50;1.00;;;;;;5092479;28;19974;-71
2023/04/05 01:50:08;;;;;;;;;;;0.50;1.00;;;;;;5080825;28;19909;-71
2023/04/05 01:52:34;;;;;;;;;;;0.40;1.00;;;;;;5074765;28;19958;-72
2023/04/05 01:54:59;;;;;;;;;;;0.40;1.00;;;;;;5075152;28;19905;-72
2023/04/05 01:57:25;;;;;;;;;;;0.40;1.00;;;;;;5075033;28;19973;-71
2023/04/05 01:59:51;;;;;;;;;;;0.30;1.00;;;;;;5075258;28;19909;-71
2023/04/05 02:02:16;;;;;;;;;;;0.20;1.00;;;;;;5077429;28;19908;-72
2023/04/05 02:04:42;;;;;;;;;;;0.20;1.00;;;;;;5094847;28;20279;-71
2023/04/05 02:07:07;;;;;;;;;;;0.20;1.00;;;;;;5092739;28;19904;-71
2023/04/05 02:09:33;;;;;;;;;;;0.20;1.00;;;;;;5080403;28;19915;-72
2023/04/05 02:12:13;;;;;;;;;;;0.20;1.00;;;;;;5056816;28;20336;-81
2023/04/05 02:17:44;;;;;;;;;;;0.00;1.00;;;;;;5090355;28;19915;-80
2023/04/05 02:20:19;;;;;;;;;;;0.00;1.00;;;;;;5078495;28;19995;-81
2023/04/05 02:22:45;;;;;;;;;;;0.00;1.00;;;;;;5095007;28;19911;-81
2023/04/05 02:25:13;;;;;;;;;;;0.00;1.00;;;;;;5094918;28;19908;-71
2023/04/05 02:27:39;;;;;;;;;;;-0.10;1.00;;;;;;5090227;28;19905;-72
2023/04/05 02:30:05;;;;;;;;;;;-0.10;1.00;;;;;;5069499;28;19908;-71
2023/04/05 02:32:31;;;;;;;;;;;-0.10;1.00;;;;;;5074322;28;19916;-72
2023/04/05 02:34:57;;;;;;;;;;;-0.10;1.00;;;;;;5091441;28;19912;-71
2023/04/05 02:37:25;;;;;;;;;;;-0.20;1.00;;;;;;5092303;28;19951;-71
2023/04/05 02:39:51;;;;;;;;;;;-0.20;1.00;;;;;;5088168;28;19919;-71
2023/04/05 02:42:17;;;;;;;;;;;-0.20;1.00;;;;;;5076965;28;19913;-71
2023/04/05 02:44:50;;;;;;;;;;;-0.20;1.00;;;;;;5093454;28;20393;-71
2023/04/05 02:47:20;;;;;;;;;;;-0.20;1.00;;;;;;5092844;28;19915;-71
2023/04/05 02:49:46;;;;;;;;;;;-0.20;1.00;;;;;;5080160;28;19916;-71
2023/04/05 02:52:12;;;;;;;;;;;-0.30;1.00;;;;;;5092557;28;19951;-71
2023/04/05 02:54:37;;;;;;;;;;;-0.30;1.00;;;;;;5094242;28;19912;-71
2023/04/05 02:57:19;;;;;;;;;;;-0.30;1.00;;;;;;5077191;28;19908;-81
2023/04/05 02:59:57;;;;;;;;;;;-0.30;1.00;;;;;;5055890;28;20252;-81
2023/04/05 03:02:43;;;;;;;;;;;-0.40;1.00;;;;;;5087364;28;20279;-81
2023/04/05 03:05:09;;;;;;;;;;;-0.40;1.00;;;;;;5093499;28;19908;-80
2023/04/05 03:07:37;;;;;;;;;;;-0.40;1.00;;;;;;5073882;28;19947;-81
2023/04/05 03:10:27;;;;;;;;;;;-0.40;1.00;;;;;;5086694;28;19914;-81
2023/04/05 03:13:01;;;;;;;;;;;-0.50;1.00;;;;;;5094467;28;19905;-81
2023/04/05 03:15:32;;;;;;;;;;;-0.40;1.00;;;;;;5089410;28;19916;-80
2023/04/05 03:18:13;;;;;;;;;;;-0.50;1.00;;;;;;5094033;28;20006;-81
2023/04/05 03:20:55;;;;;;;;;;;-0.50;1.00;;;;;;5088167;28;19908;-81
2023/04/05 03:26:24;;;;;;;;;;;-0.60;1.00;;;;;;5093976;28;19916;-71
2023/04/05 03:28:49;;;;;;;;;;;-0.60;1.00;;;;;;5073457;28;19908;-71
2023/04/05 03:31:16;;;;;;;;;;;-0.60;1.00;;;;;;5080909;28;19908;-71
2023/04/05 03:33:41;;;;;;;;;;;-0.70;1.00;;;;;;5089100;28;19997;-71
2023/04/05 03:36:07;;;;;;;;;;;-0.70;1.00;;;;;;5073598;28;19905;-71
2023/04/05 03:38:33;;;;;;;;;;;-0.70;1.00;;;;;;5055386;28;19916;-71
2023/04/05 03:41:01;;;;;;;;;;;-0.80;1.00;;;;;;5073583;28;19912;-80
2023/04/05 03:46:31;;;;;;;;;;;-0.90;1.00;;;;;;5080254;28;19953;-81
2023/04/05 03:49:19;;;;;;;;;;;-1.00;1.00;;;;;;5075626;28;20003;-81
2023/04/05 03:51:45;;;;;;;;;;;-1.00;1.00;;;;;;5077408;28;20375;-81
2023/04/05 03:54:13;;;;;;;;;;;-1.00;1.00;;;;;;5077191;28;19904;-81
2023/04/05 03:56:43;;;;;;;;;;;-1.10;1.00;;;;;;5077494;28;19951;-81
2023/04/05 03:59:09;;;;;;;;;;;-1.10;1.00;;;;;;5077407;28;19908;-81
2023/04/05 04:01:55;;;;;;;;;;;-1.10;1.00;;;;;;5088940;28;20100;-81
2023/04/05 04:04:21;;;;;;;;;;;-1.10;1.00;;;;;;5090400;28;20325;-81
2023/04/05 04:10:25;;;;;;;;;;;-1.10;1.00;;;;;;5091872;28;19959;-81
2023/04/05 04:13:01;;;;;;;;;;;-1.10;1.00;;;;;;5085792;28;19907;-81
2023/04/05 04:15:49;;;;;;;;;;;-1.10;1.00;;;;;;5078717;28;20351;-81
2023/04/05 04:18:15;;;;;;;;;;;-1.10;1.00;;;;;;5093081;28;19987;-81
2023/04/05 04:21:07;;;;;;;;;;;-1.10;1.00;;;;;;5076447;28;19953;-81
2023/04/05 04:26:36;;;;;;;;;;;-1.20;1.00;;;;;;5093561;28;20279;-72
2023/04/05 04:29:07;;;;;;;;;;;-1.20;1.00;;;;;;5096703;28;19904;-71
2023/04/05 04:31:33;;;;;;;;;;;-1.20;1.00;;;;;;5093051;28;19911;-72
2023/04/05 04:34:01;;;;;;;;;;;-1.20;1.00;;;;;;5091321;28;19912;-71
2023/04/05 04:36:33;;;;;;;;;;;-1.30;1.00;;;;;;5096582;28;19999;-71
2023/04/05 04:39:01;;;;;;;;;;;-1.30;1.00;;;;;;5096464;28;19919;-72
2023/04/05 04:41:26;;;;;;;;;;;-1.30;1.00;;;;;;5088581;28;19915;-72
2023/04/05 04:43:53;;;;;;;;;;;-1.30;1.00;;;;;;5079117;28;20347;-71
2023/04/05 04:46:19;;;;;;;;;;;-1.30;1.00;;;;;;5076535;28;20328;-72
2023/04/05 04:48:46;;;;;;;;;;;-1.30;1.00;;;;;;5075957;28;20003;-71
2023/04/05 04:51:11;;;;;;;;;;;-1.20;1.00;;;;;;5076267;28;19908;-71
2023/04/05 04:53:43;;;;;;;;;;;-1.20;1.00;;;;;;5082790;28;20413;-77
2023/04/05 04:56:09;;;;;;;;;;;-1.30;1.00;;;;;;5078052;28;19904;-77
2023/04/05 04:58:37;;;;;;;;;;;-1.30;1.00;;;;;;5094972;28;20286;-77
2023/04/05 05:01:07;;;;;;;;;;;-1.30;1.00;;;;;;5085012;28;19920;-77
2023/04/05 05:03:55;;;;;;;;;;;-1.30;1.00;;;;;;5087370;28;20284;-77
2023/04/05 05:06:21;;;;;;;;;;;-1.30;1.00;;;;;;5080074;28;20271;-79
2023/04/05 05:08:55;;;;;;;;;;;-1.20;1.00;;;;;;5079623;28;19909;-78
2023/04/05 05:11:21;;;;;;;;;;;-1.20;1.00;;;;;;5091830;28;20385;-79
2023/04/05 05:14:01;;;;;;;;;;;-1.30;1.00;;;;;;5073721;28;19915;-80
2023/04/05 05:16:43;;;;;;;;;;;-1.30;1.00;;;;;;5075631;28;19947;-81
2023/04/05 05:19:25;;;;;;;;;;;-1.20;1.00;;;;;;5075219;28;19914;-81
2023/04/05 05:21:55;;;;;;;;;;;-1.20;1.00;;;;;;5095686;28;19973;-80
2023/04/05 05:24:26;;;;;;;;;;;-1.20;1.00;;;;;;5078881;28;20002;-80
2023/04/05 05:26:55;;;;;;;;;;;-1.20;1.00;;;;;;5091556;28;19908;-80
2023/04/05 05:29:21;;;;;;;;;;;-1.20;1.00;;;;;;5089313;28;19957;-80
2023/04/05 05:31:56;;;;;;;;;;;-1.10;1.00;;;;;;5068773;28;19912;-80
2023/04/05 05:34:21;;;;;;;;;;;-1.00;1.00;;;;;;5075216;28;19909;-80
2023/04/05 05:36:55;;;;;;;;;;;-1.00;1.00;;;;;;5081484;28;20401;-80
2023/04/05 05:39:25;;;;;;;;;;;-0.90;1.00;;;;;;5091760;28;20375;-80
2023/04/05 05:42:20;;;;;;;;;;;-0.90;1.00;;;;;;5091130;28;20318;-80
2023/04/05 05:45:03;;;;;;;;;;;-0.90;1.00;;;;;;5083036;28;19912;-80
2023/04/05 05:47:37;;;;;;;;;;;-0.80;1.00;;;;;;5074834;28;20275;-80
2023/04/05 05:50:38;;;;;;;;;;;-0.80;1.00;;;;;;5074576;28;20278;-80
2023/04/05 05:53:31;;;;;;;;;;;-0.80;1.00;;;;;;5075188;28;19909;-80
2023/04/05 05:56:01;;;;;;;;;;;-0.70;1.00;;;;;;5064877;28;19987;-80
2023/04/05 05:58:31;;;;;;;;;;;-0.70;1.00;;;;;;5076032;28;19904;-80
2023/04/05 06:00:58;;;;;;;;;;;-0.60;1.00;;;;;;5077258;28;19920;-81
2023/04/05 06:03:37;;;;;;;;;;;-0.50;1.00;;;;;;5095088;28;20406;-81
2023/04/05 06:06:13;;;;;;;;;;;-0.30;1.00;;;;;;5085317;28;19958;-80
2023/04/05 06:11:42;;;;;;;;;;;-0.20;1.00;;;;;;5087191;28;19915;-81
2023/04/05 06:14:08;;;;;;;;;;;-0.10;1.00;;;;;;5073937;28;19904;-76
2023/04/05 06:16:49;;;;;;;;;;;0.00;1.00;;;;;;5086009;28;19911;-79
2023/04/05 06:19:15;;;;;;;;;;;0.10;1.00;;;;;;5059501;28;20321;-80
2023/04/05 06:21:40;;;;;;;;;;;0.20;1.00;;;;;;5074446;28;19904;-75
2023/04/05 06:24:06;;;;;;;;;;;0.30;1.00;;;;;;5074762;28;19990;-74
2023/04/05 06:26:37;;;;;;;;;;;0.40;1.00;;;;;;5084252;28;19912;-75
2023/04/05 06:29:03;;;;;;;;;;;0.50;1.00;;;;;;5074750;28;19915;-73
2023/04/05 06:31:32;;;;;;;;;;;0.70;1.00;;;;;;5086037;28;19908;-72
2023/04/05 06:37:01;;;;;;;;;;;1.00;1.00;;;;;;5075051;28;19915;-84
2023/04/05 06:39:43;;;;;;;;;;;1.20;1.00;;;;;;5074492;28;19912;-84
2023/04/05 06:42:13;;;;;;;;;;;1.30;1.00;;;;;;5084176;28;19909;-83
2023/04/05 06:51:04;;;;;;;;;;;1.80;1.00;;;;;;5073955;28;19911;-84
2023/04/05 06:53:43;;;;;;;;;;;2.10;1.00;;;;;;5056166;28;19905;-84
2023/04/05 06:59:49;;;;;;;;;;;2.40;1.00;;;;;;5074049;28;19910;-83
2023/04/05 07:02:37;;;;;;;;;;;2.60;1.00;;;;;;5074242;28;20252;-84
2023/04/05 07:08:06;;;;;;;;;;;3.00;1.00;;;;;;5092604;28;19911;-84
2023/04/05 07:10:55;;;;;;;;;;;3.20;1.00;;;;;;5082927;28;19908;-83
2023/04/05 07:13:26;;;;;;;;;;;3.50;1.00;;;;;;5094031;28;19904;-83
2023/04/05 07:15:59;;;;;;;;;;;3.80;1.00;;;;;;5094351;28;19911;-83
2023/04/05 07:18:31;;;;;;;;;;;4.10;1.00;;;;;;5076110;28;19904;-83
2023/04/05 07:21:07;;;;;;;;;;;4.50;1.00;;;;;;5056230;28;20347;-83
2023/04/05 07:23:52;;;;;;;;;;;4.80;1.00;;;;;;5073818;28;19961;-84
2023/04/05 07:26:34;;;;;;;;;;;5.10;1.00;;;;;;5088279;28;19912;-84
2023/04/05 07:29:01;;;;;;;;;;;5.20;1.00;;;;;;5084696;28;20356;-85
2023/04/05 07:37:32;;;;;;;;;;;5.10;1.00;;;;;;5077752;28;20313;-85
2023/04/05 07:43:00;;;;;;;;;;;5.20;1.00;;;;;;5077756;28;19910;-84
2023/04/05 07:46:01;;;;;;;;;;;5.30;1.00;;;;;;5059732;28;19908;-84
2023/04/05 07:48:31;;;;;;;;;;;5.30;1.00;;;;;;5077548;28;19991;-83
2023/04/05 07:54:00;;;;;;;;;;;5.20;1.00;;;;;;5077244;28;20394;-83
2023/04/05 07:56:43;;;;;;;;;;;5.30;1.00;;;;;;5077333;28;19912;-83
2023/04/05 08:02:12;;;;;;;;;;;5.50;1.00;;;;;;5077349;28;19912;-84
2023/04/05 08:07:41;;;;;;;;;;;5.50;1.00;;;;;;5077357;28;19910;-84
2023/04/05 08:13:09;;;;;;;;;;;5.70;1.00;;;;;;5097296;28;20451;-84
2023/04/05 08:15:38;;;;;;;;;;;5.70;1.00;;;;;;5079355;28;19904;-83
2023/04/05 08:18:19;;;;;;;;;;;5.80;1.00;;;;;;5079136;28;19904;-83
2023/04/05 08:21:01;;;;;;;;;;;5.80;1.00;;;;;;5078428;28;19998;-83
2023/04/05 08:26:30;;;;;;;;;;;6.00;1.00;;;;;;5076806;28;19962;-83
2023/04/05 08:29:08;;;;;;;;;;;6.10;1.00;;;;;;5058747;28;19904;-83
2023/04/05 08:34:36;;;;;;;;;;;6.20;1.00;;;;;;5076788;28;19915;-84
2023/04/05 08:40:07;;;;;;;;;;;6.30;1.00;;;;;;5076127;28;19922;-84
2023/04/05 08:49:13;;;;;;;;;;;6.60;1.00;;;;;;5082101;28;19910;-83
2023/04/05 08:51:43;;;;;;;;;;;6.80;1.00;;;;;;5084235;28;20412;-81
2023/04/05 08:54:25;;;;;;;;;;;6.80;1.00;;;;;;5084355;28;19954;-81
2023/04/05 08:56:53;;;;;;;;;;;6.90;1.00;;;;;;5074895;28;20348;-81
2023/04/05 08:59:43;;;;;;;;;;;7.00;1.00;;;;;;5077480;28;19920;-91
2023/04/05 09:02:17;;;;;;;;;;;7.00;1.00;;;;;;5094753;28;19908;-72
2023/04/05 09:04:43;;;;;;;;;;;7.00;1.00;;;;;;5116302;28;19919;-72
2023/04/05 09:07:10;;;;;;;;;;;7.10;1.00;;;;;;5094837;28;21959;-70
2023/04/05 09:09:36;;;;;;;;;;;7.20;1.00;;;;;;5085152;28;19908;-70
2023/04/05 09:12:06;;;;;;;;;;;7.40;1.00;;;;;;5065931;28;19916;-70
2023/04/05 09:14:38;;;;;;;;;;;7.40;1.00;;;;;;5082834;28;19915;-86
2023/04/05 09:17:08;;;;;;;;;;;7.50;1.00;;;;;;5086088;28;19908;-82
2023/04/05 09:19:37;;;;;;;;;;;7.50;1.00;;;;;;5087835;28;20359;-82
2023/04/05 09:22:21;;;;;;;;;;;7.50;1.00;;;;;;5084423;28;19919;-82
2023/04/05 09:25:01;;;;;;;;;;;7.60;1.00;;;;;;5075177;28;19912;-82
2023/04/05 09:27:31;;;;;;;;;;;7.70;1.00;;;;;;5078328;28;19908;-82
2023/04/05 09:30:20;;;;;;;;;;;8.10;1.00;;;;;;5082426;28;19904;-81
2023/04/05 09:32:46;;;;;;;;;;;8.30;1.00;;;;;;5079403;28;19916;-82
2023/04/05 09:35:28;;;;;;;;;;;8.40;1.00;;;;;;5085287;28;19955;-81
2023/04/05 09:38:03;;;;;;;;;;;8.60;1.00;;;;;;5065646;28;19957;-82
2023/04/05 09:40:51;;;;;;;;;;;8.50;1.00;;;;;;5074929;28;19932;-82
2023/04/05 09:46:33;;;;;;;;;;;8.50;1.00;;;;;;5075065;28;19915;-82
2023/04/05 09:52:35;;;;;;;;;;;8.80;1.00;;;;;;5086281;28;19977;-81
2023/04/05 09:58:04;;;;;;;;;;;8.90;1.00;;;;;;5032387;28;19912;-81
2023/04/05 10:00:33;;;;;;;;;;;8.90;1.00;;;;;;5031865;28;19901;-73
2023/04/05 10:02:58;;;;;;;;;;;8.80;1.00;;;;;;5013011;28;19905;-73
2023/04/05 10:05:26;;;;;;;;;;;8.90;1.00;;;;;;5018644;28;19936;-73
2023/04/05 10:07:52;;;;;;;;;;;9.10;1.00;;;;;;5032108;28;20400;-73
2023/04/05 10:10:19;;;;;;;;;;;9.10;1.00;;;;;;5028049;28;19906;-73
2023/04/05 10:12:45;;;;;;;;;;;9.20;1.00;;;;;;5031084;28;19909;-73
2023/04/05 10:15:13;;;;;;;;;;;9.30;1.00;;;;;;5031777;28;19932;-73
2023/04/05 10:20:42;;;;;;;;;;;9.40;1.00;;;;;;5031507;28;19912;-82
2023/04/05 10:23:40;;;;;;;;;;;9.40;1.00;;;;;;5032307;28;19905;-82
2023/04/05 10:26:27;;;;;;;;;;;9.40;1.00;;;;;;4992860;28;20444;-82
2023/04/05 10:29:07;;;;;;;;;;;9.60;1.00;;;;;;4992746;28;19914;-82
2023/04/05 10:31:55;;;;;;;;;;;9.60;1.00;;;;;;4993715;28;19914;-82
2023/04/05 10:34:58;;;;;;;;;;;9.40;1.00;;;;;;4992984;28;19925;-82
2023/04/05 10:40:32;;;;;;;;;;;9.50;1.00;;;;;;5012107;28;19944;-82
2023/04/05 10:43:19;;;;;;;;;;;9.40;1.00;;;;;;5028132;28;19905;-82
2023/04/05 10:45:51;;;;;;;;;;;9.40;1.00;;;;;;5032286;28;19913;-81
2023/04/05 10:54:26;;;;;;;;;;;9.50;1.00;;;;;;5031584;28;20335;-82
2023/04/05 10:56:56;;;;;;;;;;;9.60;1.00;;;;;;5031186;28;19975;-82
2023/04/05 10:59:49;;;;;;;;;;;9.50;1.00;;;;;;5030530;28;19911;-82
2023/04/05 11:02:27;;;;;;;;;;;9.50;1.00;;;;;;5061111;28;19998;-82
2023/04/05 11:04:56;;;;;;;;;;;9.50;1.00;;;;;;5059950;28;19946;-82
2023/04/05 11:10:24;;;;;;;;;;;9.70;1.00;;;;;;5053560;28;19912;-81
2023/04/05 11:13:07;;;;;;;;;;;9.90;1.00;;;;;;5078146;28;19908;-80
2023/04/05 11:15:44;;;;;;;;;;;10.00;1.00;;;;;;5082651;28;19912;-81
2023/04/05 11:18:11;;;;;;;;;;;10.10;1.00;;;;;;5093458;28;19904;-73
2023/04/05 11:20:44;;;;;;;;;;;10.10;1.00;;;;;;5094333;28;19908;-73
2023/04/05 11:23:10;;;;;;;;;;;10.10;1.00;;;;;;5078580;28;19908;-73
2023/04/05 11:25:40;;;;;;;;;;;10.20;1.00;;;;;;5074222;28;19913;-73
2023/04/05 11:28:07;;;;;;;;;;;10.10;1.00;;;;;;5091128;28;19904;-73
2023/04/05 11:30:50;;;;;;;;;;;10.20;1.00;;;;;;5090707;28;19913;-73
2023/04/05 11:33:37;;;;;;;;;;;10.10;1.00;;;;;;5077437;28;19959;-82
2023/04/05 11:36:03;;;;;;;;;;;10.10;1.00;;;;;;5074507;28;20394;-81
2023/04/05 11:38:39;;;;;;;;;;;10.10;1.00;;;;;;5072413;28;20307;-81
2023/04/05 11:41:38;;;;;;;;;;;10.20;1.00;;;;;;5073315;28;19913;-82
2023/04/05 11:44:12;;;;;;;;;;;10.20;1.00;;;;;;5073613;28;19909;-82
2023/04/05 11:46:47;;;;;;;;;;;10.40;1.00;;;;;;5073693;28;19950;-81
2023/04/05 11:49:12;;;;;;;;;;;10.40;1.00;;;;;;5073252;28;19908;-81
2023/04/05 11:51:56;;;;;;;;;;;10.30;1.00;;;;;;5089004;28;20473;-82
2023/04/05 11:54:31;;;;;;;;;;;10.30;1.00;;;;;;5085154;28;19908;-81
2023/04/05 11:57:11;;;;;;;;;;;10.60;1.00;;;;;;5075997;28;21700;-81
2023/04/05 11:59:56;;;;;;;;;;;10.70;1.00;;;;;;5080071;28;19969;-81
2023/04/05 12:02:26;;;;;;;;;;;10.80;1.00;;;;;;5058294;28;20274;-81
2023/04/05 12:04:56;;;;;;;;;;;10.80;1.00;;;;;;5072679;28;19912;-81
2023/04/05 12:13:38;;;;;;;;;;;10.80;1.00;;;;;;5081076;28;19915;-81
2023/04/05 12:16:14;;;;;;;;;;;10.80;1.00;;;;;;5078212;28;19954;-82
2023/04/05 12:18:40;;;;;;;;;;;10.90;1.00;;;;;;5081006;28;19913;-74
2023/04/05 12:21:07;;;;;;;;;;;11.00;1.00;;;;;;5082367;28;19908;-74
2023/04/05 12:23:32;;;;;;;;;;;11.00;1.00;;;;;;5071706;28;19909;-74
2023/04/05 12:25:59;;;;;;;;;;;11.10;1.00;;;;;;5077362;28;19974;-74
2023/04/05 12:28:24;;;;;;;;;;;11.30;1.00;;;;;;5076545;28;19905;-74
2023/04/05 12:30:55;;;;;;;;;;;11.30;1.00;;;;;;5078018;28;19908;-74
2023/04/05 12:33:31;;;;;;;;;;;11.30;1.00;;;;;;5077876;28;19920;-74
2023/04/05 12:35:58;;;;;;;;;;;11.30;1.00;;;;;;5058787;28;20288;-74
2023/04/05 12:38:26;;;;;;;;;;;11.50;1.00;;;;;;5081509;28;19913;-74
2023/04/05 12:40:53;;;;;;;;;;;11.60;1.00;;;;;;5064903;28;19955;-74
2023/04/05 12:43:20;;;;;;;;;;;11.70;1.00;;;;;;5077848;28;19908;-74
2023/04/05 12:45:53;;;;;;;;;;;11.60;1.00;;;;;;5083095;28;20036;-74
2023/04/05 12:48:43;;;;;;;;;;;11.60;1.00;;;;;;5096255;28;19908;-81
2023/04/05 12:54:32;;;;;;;;;;;11.80;1.00;;;;;;5075820;28;19954;-81
2023/04/05 12:56:57;;;;;;;;;;;11.80;1.00;;;;;;5075959;28;19935;-81
2023/04/05 12:59:23;;;;;;;;;;;11.90;1.00;;;;;;5075755;28;19908;-81
2023/04/05 13:01:49;;;;;;;;;;;11.80;1.00;;;;;;5084969;28;20287;-79
2023/04/05 13:04:26;;;;;;;;;;;11.60;1.00;;;;;;5080115;28;19937;-81
2023/04/05 13:07:08;;;;;;;;;;;11.70;1.00;;;;;;5089558;28;19908;-82
2023/04/05 13:09:38;;;;;;;;;;;11.70;1.00;;;;;;5078638;28;20315;-81
2023/04/05 13:12:08;;;;;;;;;;;11.80;1.00;;;;;;5078771;28;19958;-80
2023/04/05 13:14:33;;;;;;;;;;;11.80;1.00;;;;;;5087972;28;19912;-81
2023/04/05 13:17:02;;;;;;;;;;;11.90;1.00;;;;;;5095718;28;19904;-80
2023/04/05 13:19:32;;;;;;;;;;;11.90;1.00;;;;;;5076315;28;19934;-81
2023/04/05 13:22:09;;;;;;;;;;;11.90;1.00;;;;;;5077676;28;20318;-81
2023/04/05 13:24:38;;;;;;;;;;;11.90;1.00;;;;;;5083427;28;20253;-81
2023/04/05 13:27:14;;;;;;;;;;;11.90;1.00;;;;;;5084356;28;19912;-81
2023/04/05 13:29:44;;;;;;;;;;;12.00;1.00;;;;;;5078391;28;19908;-81
2023/04/05 13:32:26;;;;;;;;;;;12.10;1.00;;;;;;5084358;28;19955;-81
2023/04/05 13:34:56;;;;;;;;;;;12.10;1.00;;;;;;5057724;28;20371;-81
2023/04/05 13:37:38;;;;;;;;;;;12.10;1.00;;;;;;5077896;28;19908;-81
2023/04/05 13:40:08;;;;;;;;;;;12.10;1.00;;;;;;5057770;28;19913;-81
2023/04/05 13:42:44;;;;;;;;;;;12.10;1.00;;;;;;5077849;28;19965;-82
2023/04/05 13:45:38;;;;;;;;;;;12.00;1.00;;;;;;5057308;28;19912;-84
2023/04/05 13:48:08;;;;;;;;;;;11.90;1.00;;;;;;5059909;28;19919;-78
2023/04/05 13:50:38;;;;;;;;;;;12.00;1.00;;;;;;5088879;28;20014;-76
2023/04/05 13:53:04;;;;;;;;;;;12.10;1.00;;;;;;5082479;28;19915;-78
2023/04/05 13:55:32;;;;;;;;;;;12.10;1.00;;;;;;5086653;28;19908;-77
2023/04/05 13:57:57;;;;;;;;;;;12.20;1.00;;;;;;5093535;28;19915;-77
2023/04/05 14:00:26;;;;;;;;;;;12.30;1.00;;;;;;5074965;28;19912;-79
2023/04/05 14:05:54;;;;;;;;;;;12.30;1.00;;;;;;5074706;28;19920;-84
2023/04/05 14:14:50;;;;;;;;;;;12.10;1.00;;;;;;5074681;28;19992;-85
2023/04/05 14:17:20;;;;;;;;;;;12.30;1.00;;;;;;5074272;28;19911;-84
2023/04/05 14:20:08;;;;;;;;;;;12.50;1.00;;;;;;5084937;28;19908;-78
2023/04/05 14:22:50;;;;;;;;;;;12.70;1.00;;;;;;5074257;28;19912;-79
2023/04/05 14:25:15;;;;;;;;;;;12.70;1.00;;;;;;5074409;28;19908;-78
2023/04/05 14:30:58;;;;;;;;;;;12.50;1.00;;;;;;5074062;28;20011;-78
2023/04/05 14:33:32;;;;;;;;;;;12.60;1.00;;;;;;5074892;28;20007;-78
2023/04/05 14:36:08;;;;;;;;;;;12.70;1.00;;;;;;5073340;28;19911;-82
2023/04/05 14:39:02;;;;;;;;;;;12.70;1.00;;;;;;5074133;28;19908;-82
2023/04/05 14:42:02;;;;;;;;;;;12.70;1.00;;;;;;5063699;28;19912;-82
2023/04/05 14:44:32;;;;;;;;;;;12.60;1.00;;;;;;5080498;28;20393;-82
2023/04/05 14:47:02;;;;;;;;;;;12.80;1.00;;;;;;5056002;28;19912;-82
2023/04/05 14:50:02;;;;;;;;;;;12.90;1.00;;;;;;5073606;28;19908;-81
2023/04/05 14:52:50;;;;;;;;;;;13.00;1.00;;;;;;5075461;28;19904;-82
2023/04/05 14:55:32;;;;;;;;;;;12.70;1.00;;;;;;5073965;28;19908;-81
2023/04/05 14:58:08;;;;;;;;;;;12.50;1.00;;;;;;5055804;28;19915;-82
2023/04/05 15:00:38;;;;;;;;;;;12.60;1.00;;;;;;5073298;28;19912;-82
2023/04/05 15:06:07;;;;;;;;;;;13.50;1.00;;;;;;5074511;28;19958;-90
2023/04/05 15:11:37;;;;;;;;;;;15.40;1.00;;;;;;5074375;28;20275;-89
2023/04/05 15:17:14;;;;;;;;;;;17.70;1.00;;;;;;5075765;28;19934;-88
2023/04/05 15:19:40;;;;;;;;;;;18.90;1.00;;;;;;5076456;28;20343;-83
2023/04/05 15:25:08;;;;;;;;;;;20.50;1.00;;;;;;5083589;28;19915;-82
2023/04/05 15:27:38;;;;;;;;;;;21.30;1.00;;;;;;5074381;28;19911;-82
2023/04/05 15:30:14;;;;;;;;;;;21.90;1.00;;;;;;5055505;28;20287;-81
2023/04/05 15:38:42;;;;;;;;;;;23.70;1.00;;;;;;5094519;28;19911;-91
2023/04/05 15:44:11;;;;;;;;;;;25.10;1.00;;;;;;5093914;28;19915;-85
2023/04/05 15:46:56;;;;;;;;;;;25.00;1.00;;;;;;5078168;28;19912;-87
2023/04/05 15:49:56;;;;;;;;;;;25.30;1.00;;;;;;5079868;28;19904;-83
2023/04/05 15:55:24;;;;;;;;;;;25.80;1.00;;;;;;5097185;28;20309;-83
2023/04/05 15:57:56;;;;;;;;;;;25.70;1.00;;;;;;5079063;28;19904;-83
2023/04/05 16:00:44;;;;;;;;;;;25.70;1.00;;;;;;5084433;28;19961;-82
2023/04/05 16:03:20;;;;;;;;;;;25.70;1.00;;;;;;5064423;28;20399;-79
2023/04/05 16:05:50;;;;;;;;;;;25.70;1.00;;;;;;5086976;28;19912;-83
2023/04/05 16:08:32;;;;;;;;;;;26.30;1.00;;;;;;5077906;28;19946;-86
2023/04/05 16:14:01;;;;;;;;;;;27.10;1.00;;;;;;5080699;28;19935;-89
2023/04/05 16:19:30;;;;;;;;;;;27.30;1.00;;;;;;5081223;28;19985;-93
2023/04/05 16:28:08;;;;;;;;;;;28.70;1.00;;;;;;5077414;28;19930;-93
2023/04/05 16:33:37;;;;;;;;;;;28.70;1.00;;;;;;5077133;28;19920;-93
2023/04/05 16:45:12;;;;;;;;;;;28.40;1.00;;;;;;5076680;28;19916;-91
2023/04/05 16:56:47;;;;;;;;;;;25.80;1.00;;;;;;5090299;28;19910;-90
2023/04/05 17:05:19;;;;;;;;;;;23.60;1.00;;;;;;5076326;28;19915;-83
2023/04/05 17:07:45;;;;;;;;;;;22.30;1.00;;;;;;5060033;28;20294;-84
2023/04/05 17:10:27;;;;;;;;;;;21.20;1.00;;;;;;5063395;28;19904;-84
2023/04/05 17:13:20;;;;;;;;;;;20.20;1.00;;;;;;5078114;28;19984;-84
2023/04/05 17:15:56;;;;;;;;;;;19.00;1.00;;;;;;5094799;28;20004;-84
2023/04/05 17:18:26;;;;;;;;;;;17.90;1.00;;;;;;5058095;28;19904;-84
2023/04/05 17:21:14;;;;;;;;;;;17.00;1.00;;;;;;5058182;28;20431;-84
2023/04/05 17:23:40;;;;;;;;;;;16.10;1.00;;;;;;5057896;28;19950;-83
2023/04/05 17:29:44;;;;;;;;;;;14.50;1.00;;;;;;5075350;28;20340;-83
2023/04/05 17:32:38;;;;;;;;;;;13.70;1.00;;;;;;5078697;28;19908;-83
2023/04/05 17:44:13;;;;;;;;;;;11.50;1.00;;;;;;5096136;28;19911;-89
2023/04/05 17:52:45;;;;;;;;;;;10.40;1.00;;;;;;5075543;28;19946;-88
2023/04/05 17:55:14;;;;;;;;;;;10.00;1.00;;;;;;5057632;28;19973;-91
2023/04/05 18:07:14;;;;;;;;;;;9.00;1.00;;;;;;5075364;28;19938;-91
2023/04/05 18:09:41;;;;;;;;;;;8.70;1.00;;;;;;5057461;28;19916;-91
2023/04/05 18:15:09;;;;;;;;;;;8.30;1.00;;;;;;5075381;28;19974;-89
2023/04/05 18:17:36;;;;;;;;;;;8.10;1.00;;;;;;5081107;28;20356;-89
2023/04/05 18:23:05;;;;;;;;;;;7.70;1.00;;;;;;5074929;28;20313;-89
2023/04/05 18:28:33;;;;;;;;;;;7.30;1.00;;;;;;5075653;28;19915;-91
2023/04/05 18:34:32;;;;;;;;;;;7.00;1.00;;;;;;5091743;28;19919;-90
2023/04/05 18:37:02;;;;;;;;;;;6.80;1.00;;;;;;5076941;28;19904;-82
2023/04/05 18:39:32;;;;;;;;;;;6.70;1.00;;;;;;5089602;28;19908;-81
2023/04/05 18:41:58;;;;;;;;;;;6.50;1.00;;;;;;5074066;28;20370;-81
2023/04/05 18:44:23;;;;;;;;;;;6.40;1.00;;;;;;5055985;28;19916;-81
2023/04/05 18:46:49;;;;;;;;;;;6.30;1.00;;;;;;5074204;28;19918;-81
2023/04/05 18:49:32;;;;;;;;;;;6.20;1.00;;;;;;5074484;28;19911;-81
2023/04/05 18:52:20;;;;;;;;;;;6.10;1.00;;;;;;5074439;28;20029;-82
2023/04/05 18:54:51;;;;;;;;;;;5.90;1.00;;;;;;5073993;28;19909;-81